KMBS

Mbs International Airport

Saginaw, Michigan, USA
METAR KMBS 252153Z 25015G19KT 10SM FEW070 31/15 A2979 RMK AO2 SLP084 T03110150
Observed Flight Rules
May-25 @ 21:53 UTC (45 minutes ago) Visual Flight Rules
Wind Visibility Clouds
250° at 15 knots
 Gusting to 19 knots
10 miles
  • Few at 7,000' AGL
Temperatures Readings
Current 31°C / 88°F
Dewpoint 15°C / 59°F
Humidity 38%
Altimeter 29.79" Hg
Pressure 1008.4 hPa
Elevation 202
METAR KMBS 252153Z 25015G19KT 10SM FEW070 31/15 A2979 RMK AO2 SLP084 T03110150
Observed Flight Rules
May-25 @ 21:53 UTC
(45 minutes ago)
VFR
Wind Visibility
250° at 15 knots
 Gusting to 19 knots
10 miles
Clouds
  • Few at 7,000' AGL
Temperature Dewpoint
31°C / 88°F 15°C / 59°F
Humidity Altimeter Pressure
38% 29.79" Hg 1008.4 hPa